sensor_id;sensor_type;location;lat;lon;timestamp;P1;durP1;ratioP1;P2;durP2;ratioP2
14013;SDS011;49110;52.584;13.408;2023-10-08T00:00:50;3.00;;;1.70;;
14013;SDS011;49110;52.584;13.408;2023-10-08T00:01:53;4.90;;;2.20;;
14013;SDS011;49110;52.584;13.408;2023-10-08T00:02:55;6.77;;;1.50;;
14013;SDS011;49110;52.584;13.408;2023-10-08T00:03:56;3.00;;;2.00;;
14013;SDS011;49110;52.584;13.408;2023-10-08T00:04:58;3.63;;;2.20;;
14013;SDS011;49110;52.584;13.408;2023-10-08T00:06:02;5.43;;;2.33;;
14013;SDS011;49110;52.584;13.408;2023-10-08T00:07:06;5.57;;;2.70;;
14013;SDS011;49110;52.584;13.408;2023-10-08T00:08:07;6.50;;;2.90;;
14013;SDS011;49110;52.584;13.408;2023-10-08T00:09:12;6.70;;;2.70;;
14013;SDS011;49110;52.584;13.408;2023-10-08T00:10:14;5.27;;;2.67;;
14013;SDS011;49110;52.584;13.408;2023-10-08T00:11:15;8.37;;;3.13;;
14013;SDS011;49110;52.584;13.408;2023-10-08T00:12:17;4.47;;;2.50;;
14013;SDS011;49110;52.584;13.408;2023-10-08T00:13:19;3.83;;;2.47;;
14013;SDS011;49110;52.584;13.408;2023-10-08T00:14:19;4.27;;;2.53;;
14013;SDS011;49110;52.584;13.408;2023-10-08T00:15:21;6.97;;;3.07;;
14013;SDS011;49110;52.584;13.408;2023-10-08T00:16:25;5.63;;;2.77;;
14013;SDS011;49110;52.584;13.408;2023-10-08T00:17:28;7.17;;;3.03;;
14013;SDS011;49110;52.584;13.408;2023-10-08T00:18:28;4.20;;;2.60;;
14013;SDS011;49110;52.584;13.408;2023-10-08T00:19:29;3.97;;;2.30;;
14013;SDS011;49110;52.584;13.408;2023-10-08T00:20:36;5.47;;;2.70;;
14013;SDS011;49110;52.584;13.408;2023-10-08T00:21:54;6.23;;;2.97;;
14013;SDS011;49110;52.584;13.408;2023-10-08T00:23:04;8.20;;;3.00;;
14013;SDS011;49110;52.584;13.408;2023-10-08T00:24:07;4.20;;;3.00;;
14013;SDS011;49110;52.584;13.408;2023-10-08T00:25:09;5.27;;;2.97;;
14013;SDS011;49110;52.584;13.408;2023-10-08T00:26:11;7.30;;;3.17;;
14013;SDS011;49110;52.584;13.408;2023-10-08T00:27:12;5.80;;;3.10;;
14013;SDS011;49110;52.584;13.408;2023-10-08T00:28:18;6.87;;;3.00;;
14013;SDS011;49110;52.584;13.408;2023-10-08T00:29:19;4.67;;;2.50;;
14013;SDS011;49110;52.584;13.408;2023-10-08T00:30:22;5.27;;;3.13;;
14013;SDS011;49110;52.584;13.408;2023-10-08T00:31:23;7.33;;;3.10;;
14013;SDS011;49110;52.584;13.408;2023-10-08T00:32:30;7.60;;;2.97;;
14013;SDS011;49110;52.584;13.408;2023-10-08T00:33:30;5.17;;;3.00;;
14013;SDS011;49110;52.584;13.408;2023-10-08T00:34:31;5.10;;;3.10;;
14013;SDS011;49110;52.584;13.408;2023-10-08T00:35:32;11.07;;;3.27;;
14013;SDS011;49110;52.584;13.408;2023-10-08T00:36:41;6.63;;;3.50;;
14013;SDS011;49110;52.584;13.408;2023-10-08T00:37:49;7.03;;;3.40;;
14013;SDS011;49110;52.584;13.408;2023-10-08T00:38:50;6.13;;;3.07;;
14013;SDS011;49110;52.584;13.408;2023-10-08T00:39:52;6.77;;;3.17;;
14013;SDS011;49110;52.584;13.408;2023-10-08T00:40:56;4.93;;;2.73;;
14013;SDS011;49110;52.584;13.408;2023-10-08T00:41:57;6.87;;;2.90;;
14013;SDS011;49110;52.584;13.408;2023-10-08T00:43:04;5.67;;;2.90;;
14013;SDS011;49110;52.584;13.408;2023-10-08T00:44:10;6.57;;;3.10;;
14013;SDS011;49110;52.584;13.408;2023-10-08T00:45:23;7.03;;;2.60;;
14013;SDS011;49110;52.584;13.408;2023-10-08T00:46:24;6.37;;;2.80;;
14013;SDS011;49110;52.584;13.408;2023-10-08T00:47:29;5.30;;;2.87;;
14013;SDS011;49110;52.584;13.408;2023-10-08T00:48:30;5.80;;;2.87;;
14013;SDS011;49110;52.584;13.408;2023-10-08T00:49:38;5.40;;;2.77;;
14013;SDS011;49110;52.584;13.408;2023-10-08T00:50:41;3.97;;;2.23;;
14013;SDS011;49110;52.584;13.408;2023-10-08T00:51:46;5.57;;;2.60;;
14013;SDS011;49110;52.584;13.408;2023-10-08T00:52:48;5.17;;;2.57;;
14013;SDS011;49110;52.584;13.408;2023-10-08T00:54:10;4.47;;;2.40;;
14013;SDS011;49110;52.584;13.408;2023-10-08T00:55:17;8.90;;;2.73;;
14013;SDS011;49110;52.584;13.408;2023-10-08T00:56:21;4.97;;;2.40;;
14013;SDS011;49110;52.584;13.408;2023-10-08T00:57:25;5.07;;;2.20;;
14013;SDS011;49110;52.584;13.408;2023-10-08T00:58:27;8.37;;;2.60;;
14013;SDS011;49110;52.584;13.408;2023-10-08T00:59:27;6.53;;;2.47;;
14013;SDS011;49110;52.584;13.408;2023-10-08T01:00:33;5.53;;;2.57;;
14013;SDS011;49110;52.584;13.408;2023-10-08T01:01:42;3.53;;;2.00;;
14013;SDS011;49110;52.584;13.408;2023-10-08T01:02:51;5.17;;;1.90;;
14013;SDS011;49110;52.584;13.408;2023-10-08T01:04:16;3.20;;;2.07;;
14013;SDS011;49110;52.584;13.408;2023-10-08T01:05:26;5.83;;;2.20;;
14013;SDS011;49110;52.584;13.408;2023-10-08T01:06:42;6.20;;;1.97;;
14013;SDS011;49110;52.584;13.408;2023-10-08T01:07:43;5.17;;;2.23;;
14013;SDS011;49110;52.584;13.408;2023-10-08T01:08:48;5.47;;;2.40;;
14013;SDS011;49110;52.584;13.408;2023-10-08T01:09:52;3.47;;;1.70;;
14013;SDS011;49110;52.584;13.408;2023-10-08T01:10:59;6.07;;;2.43;;
14013;SDS011;49110;52.584;13.408;2023-10-08T01:12:17;3.83;;;1.90;;
14013;SDS011;49110;52.584;13.408;2023-10-08T01:13:23;4.20;;;2.07;;
14013;SDS011;49110;52.584;13.408;2023-10-08T01:14:26;5.43;;;1.87;;
14013;SDS011;49110;52.584;13.408;2023-10-08T01:15:32;5.03;;;2.00;;
14013;SDS011;49110;52.584;13.408;2023-10-08T01:16:35;5.03;;;1.97;;
14013;SDS011;49110;52.584;13.408;2023-10-08T01:17:36;4.43;;;2.00;;
14013;SDS011;49110;52.584;13.408;2023-10-08T01:18:56;4.27;;;2.10;;
14013;SDS011;49110;52.584;13.408;2023-10-08T01:20:00;4.10;;;1.90;;
14013;SDS011;49110;52.584;13.408;2023-10-08T01:21:09;4.50;;;2.07;;
14013;SDS011;49110;52.584;13.408;2023-10-08T01:22:18;6.37;;;2.53;;
14013;SDS011;49110;52.584;13.408;2023-10-08T01:23:19;4.47;;;1.63;;
14013;SDS011;49110;52.584;13.408;2023-10-08T01:24:27;4.67;;;1.90;;
14013;SDS011;49110;52.584;13.408;2023-10-08T01:25:27;6.87;;;2.03;;
14013;SDS011;49110;52.584;13.408;2023-10-08T01:26:29;3.40;;;1.80;;
14013;SDS011;49110;52.584;13.408;2023-10-08T01:27:31;4.40;;;1.83;;
14013;SDS011;49110;52.584;13.408;2023-10-08T01:28:34;4.27;;;1.83;;
14013;SDS011;49110;52.584;13.408;2023-10-08T01:29:35;3.47;;;1.87;;
14013;SDS011;49110;52.584;13.408;2023-10-08T01:30:36;3.63;;;1.83;;
14013;SDS011;49110;52.584;13.408;2023-10-08T01:31:41;3.60;;;1.70;;
14013;SDS011;49110;52.584;13.408;2023-10-08T01:32:42;3.47;;;1.83;;
14013;SDS011;49110;52.584;13.408;2023-10-08T01:33:43;4.37;;;1.80;;
14013;SDS011;49110;52.584;13.408;2023-10-08T01:34:56;2.70;;;1.50;;
14013;SDS011;49110;52.584;13.408;2023-10-08T01:35:59;2.60;;;1.53;;
14013;SDS011;49110;52.584;13.408;2023-10-08T01:37:03;3.57;;;1.60;;
14013;SDS011;49110;52.584;13.408;2023-10-08T01:38:08;3.53;;;1.80;;
14013;SDS011;49110;52.584;13.408;2023-10-08T01:39:13;2.20;;;1.83;;
14013;SDS011;49110;52.584;13.408;2023-10-08T01:40:18;7.23;;;2.10;;
14013;SDS011;49110;52.584;13.408;2023-10-08T01:41:19;3.63;;;1.90;;
14013;SDS011;49110;52.584;13.408;2023-10-08T01:42:19;5.80;;;2.40;;
14013;SDS011;49110;52.584;13.408;2023-10-08T01:43:22;5.27;;;2.03;;
14013;SDS011;49110;52.584;13.408;2023-10-08T01:44:23;6.97;;;2.40;;
14013;SDS011;49110;52.584;13.408;2023-10-08T01:45:24;5.43;;;1.70;;
14013;SDS011;49110;52.584;13.408;2023-10-08T01:46:24;4.33;;;1.73;;
14013;SDS011;49110;52.584;13.408;2023-10-08T01:47:25;4.03;;;1.87;;
14013;SDS011;49110;52.584;13.408;2023-10-08T01:48:26;3.00;;;1.63;;
14013;SDS011;49110;52.584;13.408;2023-10-08T01:49:36;5.43;;;1.77;;
14013;SDS011;49110;52.584;13.408;2023-10-08T01:50:39;3.07;;;1.80;;
14013;SDS011;49110;52.584;13.408;2023-10-08T01:51:39;3.53;;;1.87;;
14013;SDS011;49110;52.584;13.408;2023-10-08T01:52:49;5.27;;;1.90;;
14013;SDS011;49110;52.584;13.408;2023-10-08T01:53:54;8.13;;;2.00;;
14013;SDS011;49110;52.584;13.408;2023-10-08T01:54:58;3.60;;;2.13;;
14013;SDS011;49110;52.584;13.408;2023-10-08T01:55:59;6.07;;;2.00;;
14013;SDS011;49110;52.584;13.408;2023-10-08T01:56:59;4.07;;;1.93;;
14013;SDS011;49110;52.584;13.408;2023-10-08T01:58:00;4.67;;;2.27;;
14013;SDS011;49110;52.584;13.408;2023-10-08T01:59:00;7.20;;;2.27;;
14013;SDS011;49110;52.584;13.408;2023-10-08T02:00:00;5.00;;;2.10;;
14013;SDS011;49110;52.584;13.408;2023-10-08T02:01:01;4.77;;;2.10;;
14013;SDS011;49110;52.584;13.408;2023-10-08T02:02:05;6.17;;;2.10;;
14013;SDS011;49110;52.584;13.408;2023-10-08T02:03:06;5.73;;;2.00;;
14013;SDS011;49110;52.584;13.408;2023-10-08T02:04:09;5.87;;;2.07;;
14013;SDS011;49110;52.584;13.408;2023-10-08T02:05:12;6.47;;;2.37;;
14013;SDS011;49110;52.584;13.408;2023-10-08T02:06:15;3.90;;;2.07;;
14013;SDS011;49110;52.584;13.408;2023-10-08T02:07:15;4.13;;;2.43;;
14013;SDS011;49110;52.584;13.408;2023-10-08T02:08:16;4.70;;;2.37;;
14013;SDS011;49110;52.584;13.408;2023-10-08T02:09:19;5.57;;;2.30;;
14013;SDS011;49110;52.584;13.408;2023-10-08T02:10:26;4.60;;;2.17;;
14013;SDS011;49110;52.584;13.408;2023-10-08T02:11:28;5.17;;;2.67;;
14013;SDS011;49110;52.584;13.408;2023-10-08T02:12:29;3.30;;;2.03;;
14013;SDS011;49110;52.584;13.408;2023-10-08T02:13:30;6.20;;;2.10;;
14013;SDS011;49110;52.584;13.408;2023-10-08T02:14:31;4.37;;;2.50;;
14013;SDS011;49110;52.584;13.408;2023-10-08T02:15:31;4.97;;;2.47;;
14013;SDS011;49110;52.584;13.408;2023-10-08T02:16:32;3.63;;;2.30;;
14013;SDS011;49110;52.584;13.408;2023-10-08T02:17:33;5.53;;;2.50;;
14013;SDS011;49110;52.584;13.408;2023-10-08T02:18:34;9.57;;;2.60;;
14013;SDS011;49110;52.584;13.408;2023-10-08T02:19:35;4.83;;;2.47;;
14013;SDS011;49110;52.584;13.408;2023-10-08T02:20:37;5.10;;;2.13;;
14013;SDS011;49110;52.584;13.408;2023-10-08T02:21:39;4.33;;;2.23;;
14013;SDS011;49110;52.584;13.408;2023-10-08T02:22:40;5.87;;;2.30;;
14013;SDS011;49110;52.584;13.408;2023-10-08T02:23:40;5.33;;;2.10;;
14013;SDS011;49110;52.584;13.408;2023-10-08T02:24:43;4.10;;;2.20;;
14013;SDS011;49110;52.584;13.408;2023-10-08T02:25:44;4.90;;;2.10;;
14013;SDS011;49110;52.584;13.408;2023-10-08T02:26:44;3.70;;;2.10;;
14013;SDS011;49110;52.584;13.408;2023-10-08T02:27:44;4.07;;;2.27;;
14013;SDS011;49110;52.584;13.408;2023-10-08T02:28:45;7.17;;;2.70;;
14013;SDS011;49110;52.584;13.408;2023-10-08T02:29:46;7.70;;;2.60;;
14013;SDS011;49110;52.584;13.408;2023-10-08T02:30:46;5.57;;;2.30;;
14013;SDS011;49110;52.584;13.408;2023-10-08T02:31:47;6.23;;;2.53;;
14013;SDS011;49110;52.584;13.408;2023-10-08T02:32:47;6.17;;;2.60;;
14013;SDS011;49110;52.584;13.408;2023-10-08T02:33:49;6.93;;;2.77;;
14013;SDS011;49110;52.584;13.408;2023-10-08T02:34:50;8.70;;;2.90;;
14013;SDS011;49110;52.584;13.408;2023-10-08T02:35:50;5.97;;;2.27;;
14013;SDS011;49110;52.584;13.408;2023-10-08T02:36:53;5.97;;;2.17;;
14013;SDS011;49110;52.584;13.408;2023-10-08T02:37:56;4.20;;;2.40;;
14013;SDS011;49110;52.584;13.408;2023-10-08T02:38:57;6.17;;;2.50;;
14013;SDS011;49110;52.584;13.408;2023-10-08T02:39:57;7.27;;;2.57;;
14013;SDS011;49110;52.584;13.408;2023-10-08T02:40:58;3.77;;;2.20;;
14013;SDS011;49110;52.584;13.408;2023-10-08T02:41:59;4.43;;;2.30;;
14013;SDS011;49110;52.584;13.408;2023-10-08T02:43:00;4.13;;;2.03;;
14013;SDS011;49110;52.584;13.408;2023-10-08T02:44:00;7.77;;;2.60;;
14013;SDS011;49110;52.584;13.408;2023-10-08T02:45:01;5.67;;;2.67;;
14013;SDS011;49110;52.584;13.408;2023-10-08T02:46:02;9.57;;;3.20;;
14013;SDS011;49110;52.584;13.408;2023-10-08T02:47:07;7.77;;;2.80;;
14013;SDS011;49110;52.584;13.408;2023-10-08T02:48:11;4.60;;;2.03;;
14013;SDS011;49110;52.584;13.408;2023-10-08T02:49:13;5.93;;;2.40;;
14013;SDS011;49110;52.584;13.408;2023-10-08T02:50:21;6.50;;;2.70;;
14013;SDS011;49110;52.584;13.408;2023-10-08T02:51:22;6.63;;;2.83;;
14013;SDS011;49110;52.584;13.408;2023-10-08T02:52:24;4.10;;;2.30;;
14013;SDS011;49110;52.584;13.408;2023-10-08T02:53:26;6.13;;;2.30;;
14013;SDS011;49110;52.584;13.408;2023-10-08T02:54:26;5.10;;;2.33;;
14013;SDS011;49110;52.584;13.408;2023-10-08T02:55:39;6.37;;;2.50;;
14013;SDS011;49110;52.584;13.408;2023-10-08T02:56:47;5.33;;;2.40;;
14013;SDS011;49110;52.584;13.408;2023-10-08T02:57:51;4.47;;;2.40;;
14013;SDS011;49110;52.584;13.408;2023-10-08T02:58:52;5.67;;;2.10;;
14013;SDS011;49110;52.584;13.408;2023-10-08T02:59:55;5.97;;;2.27;;
14013;SDS011;49110;52.584;13.408;2023-10-08T03:00:55;8.47;;;2.40;;
14013;SDS011;49110;52.584;13.408;2023-10-08T03:01:56;4.63;;;2.20;;
14013;SDS011;49110;52.584;13.408;2023-10-08T03:02:57;6.13;;;2.60;;
14013;SDS011;49110;52.584;13.408;2023-10-08T03:04:01;4.17;;;2.57;;
14013;SDS011;49110;52.584;13.408;2023-10-08T03:05:08;6.13;;;2.50;;
14013;SDS011;49110;52.584;13.408;2023-10-08T03:06:13;4.63;;;2.10;;
14013;SDS011;49110;52.584;13.408;2023-10-08T03:07:15;6.53;;;2.53;;
14013;SDS011;49110;52.584;13.408;2023-10-08T03:08:21;7.10;;;2.43;;
14013;SDS011;49110;52.584;13.408;2023-10-08T03:09:22;7.47;;;2.40;;
14013;SDS011;49110;52.584;13.408;2023-10-08T03:10:24;6.47;;;2.23;;
14013;SDS011;49110;52.584;13.408;2023-10-08T03:11:32;4.70;;;2.17;;
14013;SDS011;49110;52.584;13.408;2023-10-08T03:12:32;7.37;;;2.40;;
14013;SDS011;49110;52.584;13.408;2023-10-08T03:13:33;5.23;;;2.23;;
14013;SDS011;49110;52.584;13.408;2023-10-08T03:14:38;5.67;;;2.43;;
14013;SDS011;49110;52.584;13.408;2023-10-08T03:15:49;7.27;;;2.80;;
14013;SDS011;49110;52.584;13.408;2023-10-08T03:17:02;4.40;;;2.20;;
14013;SDS011;49110;52.584;13.408;2023-10-08T03:18:07;6.97;;;2.10;;
14013;SDS011;49110;52.584;13.408;2023-10-08T03:19:09;5.17;;;2.70;;
14013;SDS011;49110;52.584;13.408;2023-10-08T03:20:10;4.83;;;2.33;;
14013;SDS011;49110;52.584;13.408;2023-10-08T03:21:49;6.67;;;2.27;;
14013;SDS011;49110;52.584;13.408;2023-10-08T03:22:51;5.13;;;2.40;;
14013;SDS011;49110;52.584;13.408;2023-10-08T03:23:51;4.70;;;2.73;;
14013;SDS011;49110;52.584;13.408;2023-10-08T03:24:52;6.77;;;2.37;;
14013;SDS011;49110;52.584;13.408;2023-10-08T03:25:56;5.30;;;2.40;;
14013;SDS011;49110;52.584;13.408;2023-10-08T03:27:09;6.90;;;2.43;;
14013;SDS011;49110;52.584;13.408;2023-10-08T03:28:20;7.73;;;2.50;;
14013;SDS011;49110;52.584;13.408;2023-10-08T03:29:24;5.97;;;2.73;;
14013;SDS011;49110;52.584;13.408;2023-10-08T03:30:30;5.33;;;2.30;;
14013;SDS011;49110;52.584;13.408;2023-10-08T03:31:30;8.43;;;2.50;;
14013;SDS011;49110;52.584;13.408;2023-10-08T03:32:46;6.40;;;2.20;;
14013;SDS011;49110;52.584;13.408;2023-10-08T03:33:56;7.03;;;2.30;;
14013;SDS011;49110;52.584;13.408;2023-10-08T03:34:57;5.37;;;2.43;;
14013;SDS011;49110;52.584;13.408;2023-10-08T03:35:59;6.47;;;2.80;;
14013;SDS011;49110;52.584;13.408;2023-10-08T03:37:00;6.87;;;2.73;;
14013;SDS011;49110;52.584;13.408;2023-10-08T03:38:05;5.20;;;2.40;;
14013;SDS011;49110;52.584;13.408;2023-10-08T03:39:19;5.83;;;2.63;;
14013;SDS011;49110;52.584;13.408;2023-10-08T03:40:20;8.67;;;2.90;;
14013;SDS011;49110;52.584;13.408;2023-10-08T03:41:41;6.03;;;2.30;;
14013;SDS011;49110;52.584;13.408;2023-10-08T03:42:42;7.53;;;2.80;;
14013;SDS011;49110;52.584;13.408;2023-10-08T03:43:49;6.27;;;2.50;;
14013;SDS011;49110;52.584;13.408;2023-10-08T03:45:01;3.10;;;1.93;;
14013;SDS011;49110;52.584;13.408;2023-10-08T03:46:10;5.70;;;2.60;;
14013;SDS011;49110;52.584;13.408;2023-10-08T03:47:15;7.00;;;2.43;;
14013;SDS011;49110;52.584;13.408;2023-10-08T03:48:19;6.03;;;2.53;;
14013;SDS011;49110;52.584;13.408;2023-10-08T03:49:22;6.43;;;2.20;;
14013;SDS011;49110;52.584;13.408;2023-10-08T03:50:23;6.00;;;2.33;;
14013;SDS011;49110;52.584;13.408;2023-10-08T03:51:32;5.10;;;2.20;;
14013;SDS011;49110;52.584;13.408;2023-10-08T03:52:39;4.73;;;2.30;;
14013;SDS011;49110;52.584;13.408;2023-10-08T03:53:40;6.83;;;2.53;;
14013;SDS011;49110;52.584;13.408;2023-10-08T03:54:59;5.37;;;2.30;;
14013;SDS011;49110;52.584;13.408;2023-10-08T03:56:14;5.07;;;2.60;;
14013;SDS011;49110;52.584;13.408;2023-10-08T03:57:14;6.07;;;2.47;;
14013;SDS011;49110;52.584;13.408;2023-10-08T03:58:19;8.17;;;2.47;;
14013;SDS011;49110;52.584;13.408;2023-10-08T03:59:29;8.93;;;3.10;;
14013;SDS011;49110;52.584;13.408;2023-10-08T04:00:29;10.73;;;2.77;;
14013;SDS011;49110;52.584;13.408;2023-10-08T04:01:31;6.33;;;2.40;;
14013;SDS011;49110;52.584;13.408;2023-10-08T04:02:33;7.33;;;2.50;;
14013;SDS011;49110;52.584;13.408;2023-10-08T04:03:40;5.30;;;2.40;;
14013;SDS011;49110;52.584;13.408;2023-10-08T04:04:59;5.57;;;2.30;;
14013;SDS011;49110;52.584;13.408;2023-10-08T04:06:15;7.13;;;2.23;;
14013;SDS011;49110;52.584;13.408;2023-10-08T04:07:16;4.30;;;2.30;;
14013;SDS011;49110;52.584;13.408;2023-10-08T04:08:28;3.00;;;2.27;;
14013;SDS011;49110;52.584;13.408;2023-10-08T04:09:55;6.90;;;2.70;;
14013;SDS011;49110;52.584;13.408;2023-10-08T04:11:09;9.53;;;2.20;;
14013;SDS011;49110;52.584;13.408;2023-10-08T04:12:28;6.40;;;2.60;;
14013;SDS011;49110;52.584;13.408;2023-10-08T04:13:29;5.53;;;2.50;;
14013;SDS011;49110;52.584;13.408;2023-10-08T04:14:30;8.27;;;2.50;;
14013;SDS011;49110;52.584;13.408;2023-10-08T04:15:31;6.17;;;2.40;;
14013;SDS011;49110;52.584;13.408;2023-10-08T04:16:32;5.13;;;2.30;;
14013;SDS011;49110;52.584;13.408;2023-10-08T04:17:37;6.50;;;2.40;;
14013;SDS011;49110;52.584;13.408;2023-10-08T04:18:45;4.33;;;2.20;;
14013;SDS011;49110;52.584;13.408;2023-10-08T04:19:50;5.50;;;2.30;;
14013;SDS011;49110;52.584;13.408;2023-10-08T04:20:51;4.43;;;2.67;;
14013;SDS011;49110;52.584;13.408;2023-10-08T04:22:04;4.53;;;2.40;;
14013;SDS011;49110;52.584;13.408;2023-10-08T04:23:14;6.67;;;2.33;;
14013;SDS011;49110;52.584;13.408;2023-10-08T04:24:24;6.43;;;2.50;;
14013;SDS011;49110;52.584;13.408;2023-10-08T04:25:29;6.47;;;2.40;;
14013;SDS011;49110;52.584;13.408;2023-10-08T04:26:30;8.27;;;2.33;;
14013;SDS011;49110;52.584;13.408;2023-10-08T04:27:33;6.87;;;2.50;;
14013;SDS011;49110;52.584;13.408;2023-10-08T04:28:34;6.10;;;2.47;;
14013;SDS011;49110;52.584;13.408;2023-10-08T04:29:35;4.53;;;2.70;;
14013;SDS011;49110;52.584;13.408;2023-10-08T04:30:38;9.67;;;2.77;;
14013;SDS011;49110;52.584;13.408;2023-10-08T04:31:41;4.10;;;2.40;;
14013;SDS011;49110;52.584;13.408;2023-10-08T04:32:46;7.03;;;2.67;;
14013;SDS011;49110;52.584;13.408;2023-10-08T04:33:47;5.80;;;2.20;;
14013;SDS011;49110;52.584;13.408;2023-10-08T04:34:47;10.47;;;3.00;;
14013;SDS011;49110;52.584;13.408;2023-10-08T04:35:49;5.10;;;2.37;;
14013;SDS011;49110;52.584;13.408;2023-10-08T04:37:01;5.63;;;2.27;;
14013;SDS011;49110;52.584;13.408;2023-10-08T04:38:04;6.87;;;2.30;;
14013;SDS011;49110;52.584;13.408;2023-10-08T04:39:08;4.03;;;2.10;;
14013;SDS011;49110;52.584;13.408;2023-10-08T04:40:21;5.17;;;2.40;;
14013;SDS011;49110;52.584;13.408;2023-10-08T04:41:24;8.87;;;2.57;;
14013;SDS011;49110;52.584;13.408;2023-10-08T04:42:28;6.50;;;2.83;;
14013;SDS011;49110;52.584;13.408;2023-10-08T04:43:28;3.87;;;2.03;;
14013;SDS011;49110;52.584;13.408;2023-10-08T04:44:34;8.83;;;2.80;;
14013;SDS011;49110;52.584;13.408;2023-10-08T04:45:34;6.80;;;2.43;;
14013;SDS011;49110;52.584;13.408;2023-10-08T04:46:35;5.50;;;2.30;;
14013;SDS011;49110;52.584;13.408;2023-10-08T04:47:38;5.27;;;2.77;;
14013;SDS011;49110;52.584;13.408;2023-10-08T04:48:42;4.13;;;2.40;;
14013;SDS011;49110;52.584;13.408;2023-10-08T04:49:43;5.97;;;2.57;;
14013;SDS011;49110;52.584;13.408;2023-10-08T04:50:46;6.90;;;2.40;;
14013;SDS011;49110;52.584;13.408;2023-10-08T04:52:01;3.77;;;2.17;;
14013;SDS011;49110;52.584;13.408;2023-10-08T04:53:08;5.30;;;2.30;;
14013;SDS011;49110;52.584;13.408;2023-10-08T04:54:10;6.17;;;2.30;;
14013;SDS011;49110;52.584;13.408;2023-10-08T04:55:16;8.47;;;3.30;;
14013;SDS011;49110;52.584;13.408;2023-10-08T04:56:20;5.97;;;2.57;;
14013;SDS011;49110;52.584;13.408;2023-10-08T04:57:22;5.27;;;2.50;;
14013;SDS011;49110;52.584;13.408;2023-10-08T04:58:25;6.97;;;2.30;;
14013;SDS011;49110;52.584;13.408;2023-10-08T04:59:33;5.47;;;2.30;;
14013;SDS011;49110;52.584;13.408;2023-10-08T05:00:33;4.43;;;2.60;;
14013;SDS011;49110;52.584;13.408;2023-10-08T05:01:52;5.33;;;2.63;;
14013;SDS011;49110;52.584;13.408;2023-10-08T05:03:11;6.00;;;2.30;;
14013;SDS011;49110;52.584;13.408;2023-10-08T05:04:15;4.47;;;2.43;;
14013;SDS011;49110;52.584;13.408;2023-10-08T05:05:27;6.07;;;2.50;;
14013;SDS011;49110;52.584;13.408;2023-10-08T05:06:38;7.40;;;2.73;;
14013;SDS011;49110;52.584;13.408;2023-10-08T05:07:38;3.67;;;2.37;;
14013;SDS011;49110;52.584;13.408;2023-10-08T05:08:45;5.17;;;2.93;;
14013;SDS011;49110;52.584;13.408;2023-10-08T05:09:48;7.40;;;2.80;;
14013;SDS011;49110;52.584;13.408;2023-10-08T05:11:03;7.37;;;2.57;;
14013;SDS011;49110;52.584;13.408;2023-10-08T05:12:24;3.97;;;2.33;;
14013;SDS011;49110;52.584;13.408;2023-10-08T05:13:43;7.00;;;2.70;;
14013;SDS011;49110;52.584;13.408;2023-10-08T05:15:01;4.20;;;2.60;;
14013;SDS011;49110;52.584;13.408;2023-10-08T05:16:14;5.80;;;2.50;;
14013;SDS011;49110;52.584;13.408;2023-10-08T05:17:35;7.40;;;2.80;;
14013;SDS011;49110;52.584;13.408;2023-10-08T05:18:46;4.47;;;2.77;;
14013;SDS011;49110;52.584;13.408;2023-10-08T05:20:14;7.70;;;2.57;;
14013;SDS011;49110;52.584;13.408;2023-10-08T05:21:19;6.33;;;3.10;;
14013;SDS011;49110;52.584;13.408;2023-10-08T05:22:25;5.93;;;2.80;;
14013;SDS011;49110;52.584;13.408;2023-10-08T05:23:29;5.67;;;2.67;;
14013;SDS011;49110;52.584;13.408;2023-10-08T05:24:29;7.43;;;2.77;;
14013;SDS011;49110;52.584;13.408;2023-10-08T05:25:41;4.17;;;2.60;;
14013;SDS011;49110;52.584;13.408;2023-10-08T05:26:57;4.33;;;2.60;;
14013;SDS011;49110;52.584;13.408;2023-10-08T05:28:18;10.30;;;2.90;;
14013;SDS011;49110;52.584;13.408;2023-10-08T05:29:24;8.50;;;2.83;;
14013;SDS011;49110;52.584;13.408;2023-10-08T05:30:52;3.93;;;2.50;;
14013;SDS011;49110;52.584;13.408;2023-10-08T05:31:55;4.97;;;2.73;;
14013;SDS011;49110;52.584;13.408;2023-10-08T05:33:14;8.03;;;2.97;;
14013;SDS011;49110;52.584;13.408;2023-10-08T05:34:17;7.90;;;2.70;;
14013;SDS011;49110;52.584;13.408;2023-10-08T05:35:33;5.23;;;2.93;;
14013;SDS011;49110;52.584;13.408;2023-10-08T05:36:41;7.03;;;3.03;;
14013;SDS011;49110;52.584;13.408;2023-10-08T05:37:59;5.90;;;2.70;;
14013;SDS011;49110;52.584;13.408;2023-10-08T05:39:13;7.03;;;2.77;;
14013;SDS011;49110;52.584;13.408;2023-10-08T05:40:30;3.70;;;2.67;;
14013;SDS011;49110;52.584;13.408;2023-10-08T05:41:49;7.57;;;2.97;;
14013;SDS011;49110;52.584;13.408;2023-10-08T05:42:55;5.93;;;2.63;;
14013;SDS011;49110;52.584;13.408;2023-10-08T05:44:01;5.03;;;2.57;;
14013;SDS011;49110;52.584;13.408;2023-10-08T05:45:19;5.17;;;2.60;;
14013;SDS011;49110;52.584;13.408;2023-10-08T05:46:29;5.10;;;2.70;;
14013;SDS011;49110;52.584;13.408;2023-10-08T05:47:30;5.70;;;2.73;;
14013;SDS011;49110;52.584;13.408;2023-10-08T05:48:33;10.40;;;3.33;;
14013;SDS011;49110;52.584;13.408;2023-10-08T05:49:45;7.97;;;3.03;;
14013;SDS011;49110;52.584;13.408;2023-10-08T05:51:08;5.80;;;3.03;;
14013;SDS011;49110;52.584;13.408;2023-10-08T05:52:33;5.97;;;2.83;;
14013;SDS011;49110;52.584;13.408;2023-10-08T05:53:50;5.80;;;3.00;;
14013;SDS011;49110;52.584;13.408;2023-10-08T05:54:56;4.87;;;2.93;;
14013;SDS011;49110;52.584;13.408;2023-10-08T05:56:18;7.33;;;3.20;;
14013;SDS011;49110;52.584;13.408;2023-10-08T05:57:42;7.13;;;3.07;;
14013;SDS011;49110;52.584;13.408;2023-10-08T05:58:46;7.03;;;3.13;;
14013;SDS011;49110;52.584;13.408;2023-10-08T06:00:00;9.33;;;2.90;;
14013;SDS011;49110;52.584;13.408;2023-10-08T06:01:00;8.60;;;3.43;;
14013;SDS011;49110;52.584;13.408;2023-10-08T06:02:07;8.50;;;2.97;;
14013;SDS011;49110;52.584;13.408;2023-10-08T06:03:28;7.17;;;2.70;;
14013;SDS011;49110;52.584;13.408;2023-10-08T06:04:47;9.80;;;3.40;;
14013;SDS011;49110;52.584;13.408;2023-10-08T06:06:13;4.90;;;2.43;;
14013;SDS011;49110;52.584;13.408;2023-10-08T06:07:14;3.73;;;2.63;;
14013;SDS011;49110;52.584;13.408;2023-10-08T06:08:33;6.70;;;3.20;;
14013;SDS011;49110;52.584;13.408;2023-10-08T06:10:04;8.37;;;3.40;;
14013;SDS011;49110;52.584;13.408;2023-10-08T06:11:25;7.67;;;2.87;;
14013;SDS011;49110;52.584;13.408;2023-10-08T06:12:43;8.33;;;2.93;;
14013;SDS011;49110;52.584;13.408;2023-10-08T06:13:50;5.33;;;2.90;;
14013;SDS011;49110;52.584;13.408;2023-10-08T06:14:55;4.77;;;2.73;;
14013;SDS011;49110;52.584;13.408;2023-10-08T06:16:08;5.43;;;2.83;;
14013;SDS011;49110;52.584;13.408;2023-10-08T06:17:09;5.47;;;2.90;;
14013;SDS011;49110;52.584;13.408;2023-10-08T06:18:44;5.20;;;2.97;;
14013;SDS011;49110;52.584;13.408;2023-10-08T06:19:44;5.03;;;2.77;;
14013;SDS011;49110;52.584;13.408;2023-10-08T06:20:45;3.37;;;2.50;;
14013;SDS011;49110;52.584;13.408;2023-10-08T06:21:46;5.10;;;2.87;;
14013;SDS011;49110;52.584;13.408;2023-10-08T06:22:46;7.03;;;2.83;;
14013;SDS011;49110;52.584;13.408;2023-10-08T06:23:47;4.87;;;3.03;;
14013;SDS011;49110;52.584;13.408;2023-10-08T06:24:49;6.80;;;2.70;;
14013;SDS011;49110;52.584;13.408;2023-10-08T06:25:49;4.30;;;2.70;;
14013;SDS011;49110;52.584;13.408;2023-10-08T06:26:58;7.07;;;3.10;;
14013;SDS011;49110;52.584;13.408;2023-10-08T06:28:04;5.57;;;2.90;;
14013;SDS011;49110;52.584;13.408;2023-10-08T06:29:12;5.23;;;2.83;;
14013;SDS011;49110;52.584;13.408;2023-10-08T06:30:19;9.27;;;2.97;;
14013;SDS011;49110;52.584;13.408;2023-10-08T06:31:19;3.87;;;2.80;;